<?xml version="1.0" encoding="UTF-8" standalone="no" ?>
<gpx xmlns="http://www.topografix.com/GPX/1/1" xmlns:xsi="http://www.w3.org/2001/XMLSchema-instance" xsi:schemaLocation="http://www.topografix.com/GPX/1/1 http://www.topografix.com/GPX/1/1/gpx.xsd" version="1.1" creator="VisuGPX - https://www.visugpx.com">
  <metadata>
    <name>Randonnée du 22/11/2017 à 10:15</name>
    <desc><![CDATA[
]]></desc>
  </metadata>
  <trk>
    <name><![CDATA[Randonnée du 22/11/2017 à 10:15]]></name>
    <trkseg>
      <trkpt lat="43.98013" lon="1.98577">
        <ele>249</ele>
        <time>2017-11-22T10:16:00+01:00</time>
      </trkpt>
      <trkpt lat="43.98028" lon="1.98637">
        <ele>275</ele>
        <time>2017-11-22T10:17:54+01:00</time>
      </trkpt>
      <trkpt lat="43.98018" lon="1.98698">
        <ele>276</ele>
        <time>2017-11-22T10:18:29+01:00</time>
      </trkpt>
      <trkpt lat="43.98028" lon="1.98759">
        <ele>277</ele>
        <time>2017-11-22T10:19:02+01:00</time>
      </trkpt>
      <trkpt lat="43.98041" lon="1.98819">
        <ele>277</ele>
        <time>2017-11-22T10:19:44+01:00</time>
      </trkpt>
      <trkpt lat="43.98012" lon="1.98867">
        <ele>278</ele>
        <time>2017-11-22T10:20:52+01:00</time>
      </trkpt>
      <trkpt lat="43.98043" lon="1.98914">
        <ele>280</ele>
        <time>2017-11-22T10:22:16+01:00</time>
      </trkpt>
      <trkpt lat="43.98068" lon="1.98966">
        <ele>282</ele>
        <time>2017-11-22T10:23:01+01:00</time>
      </trkpt>
      <trkpt lat="43.98063" lon="1.99029">
        <ele>284</ele>
        <time>2017-11-22T10:23:43+01:00</time>
      </trkpt>
      <trkpt lat="43.98059" lon="1.99092">
        <ele>285</ele>
        <time>2017-11-22T10:24:18+01:00</time>
      </trkpt>
      <trkpt lat="43.98051" lon="1.99154">
        <ele>288</ele>
        <time>2017-11-22T10:24:58+01:00</time>
      </trkpt>
      <trkpt lat="43.98012" lon="1.99189">
        <ele>291</ele>
        <time>2017-11-22T10:26:37+01:00</time>
      </trkpt>
      <trkpt lat="43.97968" lon="1.99197">
        <ele>293</ele>
        <time>2017-11-22T10:27:20+01:00</time>
      </trkpt>
      <trkpt lat="43.97925" lon="1.99218">
        <ele>293</ele>
        <time>2017-11-22T10:28:00+01:00</time>
      </trkpt>
      <trkpt lat="43.97883" lon="1.99241">
        <ele>294</ele>
        <time>2017-11-22T10:28:37+01:00</time>
      </trkpt>
      <trkpt lat="43.97837" lon="1.99235">
        <ele>294</ele>
        <time>2017-11-22T10:29:17+01:00</time>
      </trkpt>
      <trkpt lat="43.97791" lon="1.99241">
        <ele>294</ele>
        <time>2017-11-22T10:29:59+01:00</time>
      </trkpt>
      <trkpt lat="43.97748" lon="1.99263">
        <ele>294</ele>
        <time>2017-11-22T10:30:40+01:00</time>
      </trkpt>
      <trkpt lat="43.97703" lon="1.99262">
        <ele>294</ele>
        <time>2017-11-22T10:31:18+01:00</time>
      </trkpt>
      <trkpt lat="43.97658" lon="1.99275">
        <ele>294</ele>
        <time>2017-11-22T10:31:56+01:00</time>
      </trkpt>
      <trkpt lat="43.97617" lon="1.993">
        <ele>294</ele>
        <time>2017-11-22T10:32:33+01:00</time>
      </trkpt>
      <trkpt lat="43.97588" lon="1.99348">
        <ele>294</ele>
        <time>2017-11-22T10:33:14+01:00</time>
      </trkpt>
      <trkpt lat="43.97551" lon="1.99385">
        <ele>294</ele>
        <time>2017-11-22T10:33:50+01:00</time>
      </trkpt>
      <trkpt lat="43.97517" lon="1.99427">
        <ele>294</ele>
        <time>2017-11-22T10:34:28+01:00</time>
      </trkpt>
      <trkpt lat="43.97474" lon="1.99447">
        <ele>293</ele>
        <time>2017-11-22T10:35:04+01:00</time>
      </trkpt>
      <trkpt lat="43.97428" lon="1.99454">
        <ele>292</ele>
        <time>2017-11-22T10:35:42+01:00</time>
      </trkpt>
      <trkpt lat="43.97383" lon="1.99462">
        <ele>290</ele>
        <time>2017-11-22T10:36:21+01:00</time>
      </trkpt>
      <trkpt lat="43.97337" lon="1.99469">
        <ele>289</ele>
        <time>2017-11-22T10:37:20+01:00</time>
      </trkpt>
      <trkpt lat="43.97293" lon="1.99482">
        <ele>288</ele>
        <time>2017-11-22T10:38:04+01:00</time>
      </trkpt>
      <trkpt lat="43.97248" lon="1.99493">
        <ele>287</ele>
        <time>2017-11-22T10:38:44+01:00</time>
      </trkpt>
      <trkpt lat="43.97202" lon="1.99494">
        <ele>287</ele>
        <time>2017-11-22T10:39:24+01:00</time>
      </trkpt>
      <trkpt lat="43.97157" lon="1.99499">
        <ele>287</ele>
        <time>2017-11-22T10:40:04+01:00</time>
      </trkpt>
      <trkpt lat="43.97112" lon="1.995">
        <ele>287</ele>
        <time>2017-11-22T10:40:46+01:00</time>
      </trkpt>
      <trkpt lat="43.97067" lon="1.99507">
        <ele>286</ele>
        <time>2017-11-22T10:41:34+01:00</time>
      </trkpt>
      <trkpt lat="43.97021" lon="1.99507">
        <ele>287</ele>
        <time>2017-11-22T10:43:41+01:00</time>
      </trkpt>
      <trkpt lat="43.96986" lon="1.9955">
        <ele>287</ele>
        <time>2017-11-22T10:44:20+01:00</time>
      </trkpt>
      <trkpt lat="43.96951" lon="1.9959">
        <ele>287</ele>
        <time>2017-11-22T10:45:10+01:00</time>
      </trkpt>
      <trkpt lat="43.96908" lon="1.9961">
        <ele>287</ele>
        <time>2017-11-22T10:45:53+01:00</time>
      </trkpt>
      <trkpt lat="43.96866" lon="1.99586">
        <ele>288</ele>
        <time>2017-11-22T10:46:53+01:00</time>
      </trkpt>
      <trkpt lat="43.96829" lon="1.9955">
        <ele>288</ele>
        <time>2017-11-22T10:47:35+01:00</time>
      </trkpt>
      <trkpt lat="43.9679" lon="1.99514">
        <ele>288</ele>
        <time>2017-11-22T10:48:18+01:00</time>
      </trkpt>
      <trkpt lat="43.96754" lon="1.99476">
        <ele>288</ele>
        <time>2017-11-22T10:48:57+01:00</time>
      </trkpt>
      <trkpt lat="43.96722" lon="1.9943">
        <ele>288</ele>
        <time>2017-11-22T10:49:35+01:00</time>
      </trkpt>
      <trkpt lat="43.96683" lon="1.99399">
        <ele>289</ele>
        <time>2017-11-22T10:50:11+01:00</time>
      </trkpt>
      <trkpt lat="43.96641" lon="1.99371">
        <ele>289</ele>
        <time>2017-11-22T10:50:47+01:00</time>
      </trkpt>
      <trkpt lat="43.96597" lon="1.99355">
        <ele>289</ele>
        <time>2017-11-22T10:51:23+01:00</time>
      </trkpt>
      <trkpt lat="43.96554" lon="1.99336">
        <ele>289</ele>
        <time>2017-11-22T10:52:00+01:00</time>
      </trkpt>
      <trkpt lat="43.96509" lon="1.99332">
        <ele>289</ele>
        <time>2017-11-22T10:52:39+01:00</time>
      </trkpt>
      <trkpt lat="43.96471" lon="1.99368">
        <ele>289</ele>
        <time>2017-11-22T10:53:19+01:00</time>
      </trkpt>
      <trkpt lat="43.9643" lon="1.99396">
        <ele>289</ele>
        <time>2017-11-22T10:53:59+01:00</time>
      </trkpt>
      <trkpt lat="43.96391" lon="1.99426">
        <ele>289</ele>
        <time>2017-11-22T10:54:36+01:00</time>
      </trkpt>
      <trkpt lat="43.96352" lon="1.99459">
        <ele>289</ele>
        <time>2017-11-22T10:55:19+01:00</time>
      </trkpt>
      <trkpt lat="43.96316" lon="1.995">
        <ele>289</ele>
        <time>2017-11-22T10:55:59+01:00</time>
      </trkpt>
      <trkpt lat="43.96277" lon="1.99531">
        <ele>289</ele>
        <time>2017-11-22T10:56:35+01:00</time>
      </trkpt>
      <trkpt lat="43.96232" lon="1.99548">
        <ele>288</ele>
        <time>2017-11-22T10:57:15+01:00</time>
      </trkpt>
      <trkpt lat="43.96192" lon="1.99521">
        <ele>288</ele>
        <time>2017-11-22T10:57:53+01:00</time>
      </trkpt>
      <trkpt lat="43.96151" lon="1.99492">
        <ele>287</ele>
        <time>2017-11-22T10:58:29+01:00</time>
      </trkpt>
      <trkpt lat="43.96107" lon="1.99473">
        <ele>287</ele>
        <time>2017-11-22T10:59:07+01:00</time>
      </trkpt>
      <trkpt lat="43.96062" lon="1.99464">
        <ele>286</ele>
        <time>2017-11-22T10:59:45+01:00</time>
      </trkpt>
      <trkpt lat="43.96017" lon="1.99478">
        <ele>285</ele>
        <time>2017-11-22T11:00:24+01:00</time>
      </trkpt>
      <trkpt lat="43.95975" lon="1.99501">
        <ele>284</ele>
        <time>2017-11-22T11:01:02+01:00</time>
      </trkpt>
      <trkpt lat="43.95941" lon="1.99543">
        <ele>283</ele>
        <time>2017-11-22T11:01:33+01:00</time>
      </trkpt>
      <trkpt lat="43.95917" lon="1.99597">
        <ele>282</ele>
        <time>2017-11-22T11:02:12+01:00</time>
      </trkpt>
      <trkpt lat="43.95881" lon="1.99637">
        <ele>281</ele>
        <time>2017-11-22T11:02:48+01:00</time>
      </trkpt>
      <trkpt lat="43.95835" lon="1.99635">
        <ele>279</ele>
        <time>2017-11-22T11:03:21+01:00</time>
      </trkpt>
      <trkpt lat="43.95797" lon="1.99671">
        <ele>278</ele>
        <time>2017-11-22T11:04:01+01:00</time>
      </trkpt>
      <trkpt lat="43.9577" lon="1.99721">
        <ele>277</ele>
        <time>2017-11-22T11:04:39+01:00</time>
      </trkpt>
      <trkpt lat="43.95731" lon="1.99754">
        <ele>274</ele>
        <time>2017-11-22T11:05:20+01:00</time>
      </trkpt>
      <trkpt lat="43.9569" lon="1.99781">
        <ele>272</ele>
        <time>2017-11-22T11:06:00+01:00</time>
      </trkpt>
      <trkpt lat="43.95645" lon="1.99773">
        <ele>271</ele>
        <time>2017-11-22T11:06:49+01:00</time>
      </trkpt>
      <trkpt lat="43.95603" lon="1.99748">
        <ele>269</ele>
        <time>2017-11-22T11:07:30+01:00</time>
      </trkpt>
      <trkpt lat="43.95562" lon="1.9972">
        <ele>266</ele>
        <time>2017-11-22T11:08:10+01:00</time>
      </trkpt>
      <trkpt lat="43.95521" lon="1.99695">
        <ele>262</ele>
        <time>2017-11-22T11:08:45+01:00</time>
      </trkpt>
      <trkpt lat="43.95481" lon="1.99665">
        <ele>259</ele>
        <time>2017-11-22T11:09:19+01:00</time>
      </trkpt>
      <trkpt lat="43.95439" lon="1.99637">
        <ele>254</ele>
        <time>2017-11-22T11:09:59+01:00</time>
      </trkpt>
      <trkpt lat="43.95475" lon="1.996">
        <ele>249</ele>
        <time>2017-11-22T11:10:41+01:00</time>
      </trkpt>
      <trkpt lat="43.95505" lon="1.99552">
        <ele>246</ele>
        <time>2017-11-22T11:11:20+01:00</time>
      </trkpt>
      <trkpt lat="43.95515" lon="1.9949">
        <ele>243</ele>
        <time>2017-11-22T11:11:58+01:00</time>
      </trkpt>
      <trkpt lat="43.95508" lon="1.99428">
        <ele>242</ele>
        <time>2017-11-22T11:12:37+01:00</time>
      </trkpt>
      <trkpt lat="43.95502" lon="1.99364">
        <ele>241</ele>
        <time>2017-11-22T11:13:18+01:00</time>
      </trkpt>
      <trkpt lat="43.95491" lon="1.99302">
        <ele>240</ele>
        <time>2017-11-22T11:13:55+01:00</time>
      </trkpt>
      <trkpt lat="43.95492" lon="1.9924">
        <ele>239</ele>
        <time>2017-11-22T11:14:31+01:00</time>
      </trkpt>
      <trkpt lat="43.95505" lon="1.99179">
        <ele>238</ele>
        <time>2017-11-22T11:15:08+01:00</time>
      </trkpt>
      <trkpt lat="43.95521" lon="1.99119">
        <ele>237</ele>
        <time>2017-11-22T11:15:55+01:00</time>
      </trkpt>
      <trkpt lat="43.95531" lon="1.99058">
        <ele>237</ele>
        <time>2017-11-22T11:16:40+01:00</time>
      </trkpt>
      <trkpt lat="43.95544" lon="1.98998">
        <ele>236</ele>
        <time>2017-11-22T11:17:23+01:00</time>
      </trkpt>
      <trkpt lat="43.9552" lon="1.98943">
        <ele>236</ele>
        <time>2017-11-22T11:17:56+01:00</time>
      </trkpt>
      <trkpt lat="43.95514" lon="1.9888">
        <ele>236</ele>
        <time>2017-11-22T11:18:39+01:00</time>
      </trkpt>
      <trkpt lat="43.9552" lon="1.98818">
        <ele>237</ele>
        <time>2017-11-22T11:19:14+01:00</time>
      </trkpt>
      <trkpt lat="43.95534" lon="1.98758">
        <ele>238</ele>
        <time>2017-11-22T11:19:54+01:00</time>
      </trkpt>
      <trkpt lat="43.95526" lon="1.98696">
        <ele>238</ele>
        <time>2017-11-22T11:20:37+01:00</time>
      </trkpt>
      <trkpt lat="43.95511" lon="1.98636">
        <ele>239</ele>
        <time>2017-11-22T11:21:17+01:00</time>
      </trkpt>
      <trkpt lat="43.955" lon="1.98574">
        <ele>239</ele>
        <time>2017-11-22T11:21:53+01:00</time>
      </trkpt>
      <trkpt lat="43.95521" lon="1.98518">
        <ele>239</ele>
        <time>2017-11-22T11:22:39+01:00</time>
      </trkpt>
      <trkpt lat="43.95556" lon="1.98477">
        <ele>239</ele>
        <time>2017-11-22T11:23:22+01:00</time>
      </trkpt>
      <trkpt lat="43.95584" lon="1.98428">
        <ele>239</ele>
        <time>2017-11-22T11:23:59+01:00</time>
      </trkpt>
      <trkpt lat="43.95616" lon="1.98383">
        <ele>239</ele>
        <time>2017-11-22T11:24:40+01:00</time>
      </trkpt>
      <trkpt lat="43.95645" lon="1.98335">
        <ele>240</ele>
        <time>2017-11-22T11:25:23+01:00</time>
      </trkpt>
      <trkpt lat="43.95674" lon="1.98286">
        <ele>240</ele>
        <time>2017-11-22T11:26:04+01:00</time>
      </trkpt>
      <trkpt lat="43.95704" lon="1.98241">
        <ele>240</ele>
        <time>2017-11-22T11:26:42+01:00</time>
      </trkpt>
      <trkpt lat="43.9573" lon="1.98189">
        <ele>241</ele>
        <time>2017-11-22T11:27:21+01:00</time>
      </trkpt>
      <trkpt lat="43.95741" lon="1.98127">
        <ele>241</ele>
        <time>2017-11-22T11:28:06+01:00</time>
      </trkpt>
      <trkpt lat="43.9576" lon="1.98069">
        <ele>241</ele>
        <time>2017-11-22T11:28:47+01:00</time>
      </trkpt>
      <trkpt lat="43.95781" lon="1.98013">
        <ele>241</ele>
        <time>2017-11-22T11:29:26+01:00</time>
      </trkpt>
      <trkpt lat="43.95809" lon="1.97965">
        <ele>241</ele>
        <time>2017-11-22T11:30:07+01:00</time>
      </trkpt>
      <trkpt lat="43.9584" lon="1.97919">
        <ele>238</ele>
        <time>2017-11-22T11:35:54+01:00</time>
      </trkpt>
      <trkpt lat="43.95867" lon="1.97869">
        <ele>236</ele>
        <time>2017-11-22T11:36:40+01:00</time>
      </trkpt>
      <trkpt lat="43.9589" lon="1.97815">
        <ele>235</ele>
        <time>2017-11-22T11:37:24+01:00</time>
      </trkpt>
      <trkpt lat="43.95907" lon="1.97757">
        <ele>234</ele>
        <time>2017-11-22T11:38:07+01:00</time>
      </trkpt>
      <trkpt lat="43.95925" lon="1.977">
        <ele>234</ele>
        <time>2017-11-22T11:38:57+01:00</time>
      </trkpt>
      <trkpt lat="43.95929" lon="1.97637">
        <ele>234</ele>
        <time>2017-11-22T11:39:46+01:00</time>
      </trkpt>
      <trkpt lat="43.95923" lon="1.97574">
        <ele>234</ele>
        <time>2017-11-22T11:40:37+01:00</time>
      </trkpt>
      <trkpt lat="43.95926" lon="1.97512">
        <ele>234</ele>
        <time>2017-11-22T11:41:22+01:00</time>
      </trkpt>
      <trkpt lat="43.95923" lon="1.9745">
        <ele>234</ele>
        <time>2017-11-22T11:42:15+01:00</time>
      </trkpt>
      <trkpt lat="43.95936" lon="1.97389">
        <ele>235</ele>
        <time>2017-11-22T11:43:16+01:00</time>
      </trkpt>
      <trkpt lat="43.95934" lon="1.97327">
        <ele>237</ele>
        <time>2017-11-22T11:44:10+01:00</time>
      </trkpt>
      <trkpt lat="43.95957" lon="1.97272">
        <ele>239</ele>
        <time>2017-11-22T11:44:55+01:00</time>
      </trkpt>
      <trkpt lat="43.95991" lon="1.97229">
        <ele>242</ele>
        <time>2017-11-22T11:45:36+01:00</time>
      </trkpt>
      <trkpt lat="43.96026" lon="1.97188">
        <ele>244</ele>
        <time>2017-11-22T11:46:07+01:00</time>
      </trkpt>
      <trkpt lat="43.9606" lon="1.97144">
        <ele>246</ele>
        <time>2017-11-22T11:46:46+01:00</time>
      </trkpt>
      <trkpt lat="43.96095" lon="1.97104">
        <ele>247</ele>
        <time>2017-11-22T11:47:24+01:00</time>
      </trkpt>
      <trkpt lat="43.9613" lon="1.97063">
        <ele>248</ele>
        <time>2017-11-22T11:47:59+01:00</time>
      </trkpt>
      <trkpt lat="43.96156" lon="1.97012">
        <ele>248</ele>
        <time>2017-11-22T11:48:37+01:00</time>
      </trkpt>
      <trkpt lat="43.96177" lon="1.96955">
        <ele>249</ele>
        <time>2017-11-22T11:49:16+01:00</time>
      </trkpt>
      <trkpt lat="43.96206" lon="1.96907">
        <ele>249</ele>
        <time>2017-11-22T11:50:44+01:00</time>
      </trkpt>
      <trkpt lat="43.96182" lon="1.96854">
        <ele>254</ele>
        <time>2017-11-22T11:54:21+01:00</time>
      </trkpt>
      <trkpt lat="43.96146" lon="1.96816">
        <ele>256</ele>
        <time>2017-11-22T11:55:07+01:00</time>
      </trkpt>
      <trkpt lat="43.96155" lon="1.96755">
        <ele>258</ele>
        <time>2017-11-22T11:56:30+01:00</time>
      </trkpt>
      <trkpt lat="43.962" lon="1.96741">
        <ele>260</ele>
        <time>2017-11-22T11:57:10+01:00</time>
      </trkpt>
      <trkpt lat="43.96243" lon="1.9672">
        <ele>260</ele>
        <time>2017-11-22T11:57:52+01:00</time>
      </trkpt>
      <trkpt lat="43.96278" lon="1.96679">
        <ele>261</ele>
        <time>2017-11-22T11:58:29+01:00</time>
      </trkpt>
      <trkpt lat="43.96302" lon="1.96626">
        <ele>261</ele>
        <time>2017-11-22T11:59:04+01:00</time>
      </trkpt>
      <trkpt lat="43.96322" lon="1.9657">
        <ele>261</ele>
        <time>2017-11-22T11:59:45+01:00</time>
      </trkpt>
      <trkpt lat="43.96342" lon="1.96514">
        <ele>261</ele>
        <time>2017-11-22T12:00:22+01:00</time>
      </trkpt>
      <trkpt lat="43.96355" lon="1.96454">
        <ele>262</ele>
        <time>2017-11-22T12:01:03+01:00</time>
      </trkpt>
      <trkpt lat="43.96377" lon="1.96397">
        <ele>262</ele>
        <time>2017-11-22T12:01:40+01:00</time>
      </trkpt>
      <trkpt lat="43.9638" lon="1.96334">
        <ele>262</ele>
        <time>2017-11-22T12:02:16+01:00</time>
      </trkpt>
      <trkpt lat="43.96386" lon="1.9627">
        <ele>262</ele>
        <time>2017-11-22T12:02:53+01:00</time>
      </trkpt>
      <trkpt lat="43.96403" lon="1.96212">
        <ele>262</ele>
        <time>2017-11-22T12:03:30+01:00</time>
      </trkpt>
      <trkpt lat="43.96423" lon="1.96156">
        <ele>262</ele>
        <time>2017-11-22T12:04:10+01:00</time>
      </trkpt>
      <trkpt lat="43.96443" lon="1.96099">
        <ele>262</ele>
        <time>2017-11-22T12:04:49+01:00</time>
      </trkpt>
      <trkpt lat="43.96462" lon="1.96041">
        <ele>262</ele>
        <time>2017-11-22T12:05:27+01:00</time>
      </trkpt>
      <trkpt lat="43.96478" lon="1.95982">
        <ele>262</ele>
        <time>2017-11-22T12:06:02+01:00</time>
      </trkpt>
      <trkpt lat="43.96501" lon="1.95923">
        <ele>263</ele>
        <time>2017-11-22T12:06:45+01:00</time>
      </trkpt>
      <trkpt lat="43.96511" lon="1.9586">
        <ele>263</ele>
        <time>2017-11-22T12:07:22+01:00</time>
      </trkpt>
      <trkpt lat="43.96524" lon="1.95799">
        <ele>263</ele>
        <time>2017-11-22T12:07:56+01:00</time>
      </trkpt>
      <trkpt lat="43.96539" lon="1.95739">
        <ele>263</ele>
        <time>2017-11-22T12:08:33+01:00</time>
      </trkpt>
      <trkpt lat="43.96553" lon="1.95678">
        <ele>263</ele>
        <time>2017-11-22T12:09:11+01:00</time>
      </trkpt>
      <trkpt lat="43.96567" lon="1.95617">
        <ele>263</ele>
        <time>2017-11-22T12:09:47+01:00</time>
      </trkpt>
      <trkpt lat="43.96572" lon="1.95554">
        <ele>263</ele>
        <time>2017-11-22T12:10:19+01:00</time>
      </trkpt>
      <trkpt lat="43.96592" lon="1.95497">
        <ele>263</ele>
        <time>2017-11-22T12:11:09+01:00</time>
      </trkpt>
      <trkpt lat="43.96635" lon="1.95475">
        <ele>264</ele>
        <time>2017-11-22T12:13:52+01:00</time>
      </trkpt>
      <trkpt lat="43.9668" lon="1.95467">
        <ele>265</ele>
        <time>2017-11-22T12:14:37+01:00</time>
      </trkpt>
      <trkpt lat="43.96719" lon="1.95496">
        <ele>266</ele>
        <time>2017-11-22T12:15:41+01:00</time>
      </trkpt>
      <trkpt lat="43.96762" lon="1.95519">
        <ele>267</ele>
        <time>2017-11-22T12:16:29+01:00</time>
      </trkpt>
      <trkpt lat="43.96806" lon="1.95529">
        <ele>267</ele>
        <time>2017-11-22T12:17:18+01:00</time>
      </trkpt>
      <trkpt lat="43.96852" lon="1.95524">
        <ele>268</ele>
        <time>2017-11-22T12:18:07+01:00</time>
      </trkpt>
      <trkpt lat="43.96877" lon="1.95473">
        <ele>268</ele>
        <time>2017-11-22T12:18:48+01:00</time>
      </trkpt>
      <trkpt lat="43.96903" lon="1.95421">
        <ele>268</ele>
        <time>2017-11-22T12:19:33+01:00</time>
      </trkpt>
      <trkpt lat="43.96935" lon="1.95376">
        <ele>269</ele>
        <time>2017-11-22T12:20:18+01:00</time>
      </trkpt>
      <trkpt lat="43.96954" lon="1.95319">
        <ele>270</ele>
        <time>2017-11-22T12:20:59+01:00</time>
      </trkpt>
      <trkpt lat="43.96983" lon="1.95271">
        <ele>271</ele>
        <time>2017-11-22T12:21:42+01:00</time>
      </trkpt>
      <trkpt lat="43.97012" lon="1.95222">
        <ele>272</ele>
        <time>2017-11-22T12:22:25+01:00</time>
      </trkpt>
      <trkpt lat="43.97049" lon="1.95184">
        <ele>272</ele>
        <time>2017-11-22T12:23:24+01:00</time>
      </trkpt>
      <trkpt lat="43.97085" lon="1.95223">
        <ele>273</ele>
        <time>2017-11-22T12:24:46+01:00</time>
      </trkpt>
      <trkpt lat="43.97101" lon="1.95283">
        <ele>273</ele>
        <time>2017-11-22T12:26:12+01:00</time>
      </trkpt>
      <trkpt lat="43.97128" lon="1.95333">
        <ele>273</ele>
        <time>2017-11-22T12:27:07+01:00</time>
      </trkpt>
      <trkpt lat="43.97171" lon="1.95355">
        <ele>273</ele>
        <time>2017-11-22T12:28:07+01:00</time>
      </trkpt>
      <trkpt lat="43.97212" lon="1.95331">
        <ele>274</ele>
        <time>2017-11-22T12:31:50+01:00</time>
      </trkpt>
      <trkpt lat="43.97246" lon="1.9529">
        <ele>275</ele>
        <time>2017-11-22T12:32:32+01:00</time>
      </trkpt>
      <trkpt lat="43.97282" lon="1.9525">
        <ele>276</ele>
        <time>2017-11-22T12:33:16+01:00</time>
      </trkpt>
      <trkpt lat="43.97319" lon="1.95212">
        <ele>277</ele>
        <time>2017-11-22T12:33:58+01:00</time>
      </trkpt>
      <trkpt lat="43.97313" lon="1.95149">
        <ele>277</ele>
        <time>2017-11-22T12:34:45+01:00</time>
      </trkpt>
      <trkpt lat="43.9729" lon="1.95094">
        <ele>277</ele>
        <time>2017-11-22T12:35:31+01:00</time>
      </trkpt>
      <trkpt lat="43.97267" lon="1.95039">
        <ele>277</ele>
        <time>2017-11-22T12:36:19+01:00</time>
      </trkpt>
      <trkpt lat="43.97241" lon="1.94986">
        <ele>277</ele>
        <time>2017-11-22T12:37:14+01:00</time>
      </trkpt>
      <trkpt lat="43.97224" lon="1.94929">
        <ele>277</ele>
        <time>2017-11-22T12:38:02+01:00</time>
      </trkpt>
      <trkpt lat="43.97201" lon="1.94873">
        <ele>277</ele>
        <time>2017-11-22T12:38:43+01:00</time>
      </trkpt>
      <trkpt lat="43.97202" lon="1.94809">
        <ele>278</ele>
        <time>2017-11-22T12:39:24+01:00</time>
      </trkpt>
      <trkpt lat="43.97213" lon="1.94748">
        <ele>278</ele>
        <time>2017-11-22T12:39:58+01:00</time>
      </trkpt>
      <trkpt lat="43.97257" lon="1.94765">
        <ele>278</ele>
        <time>2017-11-22T12:41:02+01:00</time>
      </trkpt>
      <trkpt lat="43.9729" lon="1.94808">
        <ele>279</ele>
        <time>2017-11-22T12:41:42+01:00</time>
      </trkpt>
      <trkpt lat="43.97335" lon="1.94817">
        <ele>279</ele>
        <time>2017-11-22T12:42:12+01:00</time>
      </trkpt>
      <trkpt lat="43.9738" lon="1.94813">
        <ele>279</ele>
        <time>2017-11-22T12:42:50+01:00</time>
      </trkpt>
      <trkpt lat="43.97425" lon="1.94807">
        <ele>278</ele>
        <time>2017-11-22T12:43:26+01:00</time>
      </trkpt>
      <trkpt lat="43.97464" lon="1.94776">
        <ele>278</ele>
        <time>2017-11-22T12:44:01+01:00</time>
      </trkpt>
      <trkpt lat="43.97492" lon="1.94726">
        <ele>278</ele>
        <time>2017-11-22T12:44:35+01:00</time>
      </trkpt>
      <trkpt lat="43.97518" lon="1.94674">
        <ele>278</ele>
        <time>2017-11-22T12:45:09+01:00</time>
      </trkpt>
      <trkpt lat="43.97545" lon="1.94624">
        <ele>278</ele>
        <time>2017-11-22T12:45:41+01:00</time>
      </trkpt>
      <trkpt lat="43.97574" lon="1.94572">
        <ele>278</ele>
        <time>2017-11-22T12:46:23+01:00</time>
      </trkpt>
      <trkpt lat="43.97601" lon="1.94522">
        <ele>278</ele>
        <time>2017-11-22T12:47:00+01:00</time>
      </trkpt>
      <trkpt lat="43.97624" lon="1.94467">
        <ele>278</ele>
        <time>2017-11-22T12:47:34+01:00</time>
      </trkpt>
      <trkpt lat="43.97631" lon="1.94405">
        <ele>278</ele>
        <time>2017-11-22T12:48:04+01:00</time>
      </trkpt>
      <trkpt lat="43.97632" lon="1.94342">
        <ele>278</ele>
        <time>2017-11-22T12:48:36+01:00</time>
      </trkpt>
      <trkpt lat="43.97676" lon="1.94332">
        <ele>278</ele>
        <time>2017-11-22T12:52:32+01:00</time>
      </trkpt>
      <trkpt lat="43.97714" lon="1.94366">
        <ele>278</ele>
        <time>2017-11-22T12:53:24+01:00</time>
      </trkpt>
      <trkpt lat="43.97755" lon="1.94395">
        <ele>278</ele>
        <time>2017-11-22T12:54:10+01:00</time>
      </trkpt>
      <trkpt lat="43.97793" lon="1.94428">
        <ele>278</ele>
        <time>2017-11-22T12:54:57+01:00</time>
      </trkpt>
      <trkpt lat="43.97836" lon="1.94445">
        <ele>278</ele>
        <time>2017-11-22T12:55:48+01:00</time>
      </trkpt>
      <trkpt lat="43.97881" lon="1.9446">
        <ele>278</ele>
        <time>2017-11-22T12:56:19+01:00</time>
      </trkpt>
      <trkpt lat="43.97923" lon="1.94484">
        <ele>278</ele>
        <time>2017-11-22T12:57:01+01:00</time>
      </trkpt>
      <trkpt lat="43.97962" lon="1.94515">
        <ele>278</ele>
        <time>2017-11-22T12:57:46+01:00</time>
      </trkpt>
      <trkpt lat="43.98005" lon="1.9454">
        <ele>277</ele>
        <time>2017-11-22T12:58:30+01:00</time>
      </trkpt>
      <trkpt lat="43.98042" lon="1.94578">
        <ele>278</ele>
        <time>2017-11-22T12:59:22+01:00</time>
      </trkpt>
      <trkpt lat="43.98086" lon="1.9459">
        <ele>278</ele>
        <time>2017-11-22T13:00:07+01:00</time>
      </trkpt>
      <trkpt lat="43.98129" lon="1.9457">
        <ele>278</ele>
        <time>2017-11-22T13:00:48+01:00</time>
      </trkpt>
      <trkpt lat="43.98173" lon="1.94582">
        <ele>278</ele>
        <time>2017-11-22T13:01:31+01:00</time>
      </trkpt>
      <trkpt lat="43.98208" lon="1.94623">
        <ele>278</ele>
        <time>2017-11-22T13:02:16+01:00</time>
      </trkpt>
      <trkpt lat="43.98246" lon="1.94659">
        <ele>278</ele>
        <time>2017-11-22T13:02:44+01:00</time>
      </trkpt>
      <trkpt lat="43.98289" lon="1.94681">
        <ele>279</ele>
        <time>2017-11-22T13:03:14+01:00</time>
      </trkpt>
      <trkpt lat="43.98334" lon="1.94682">
        <ele>279</ele>
        <time>2017-11-22T13:03:41+01:00</time>
      </trkpt>
      <trkpt lat="43.98379" lon="1.94686">
        <ele>279</ele>
        <time>2017-11-22T13:04:15+01:00</time>
      </trkpt>
      <trkpt lat="43.98422" lon="1.94708">
        <ele>279</ele>
        <time>2017-11-22T13:04:48+01:00</time>
      </trkpt>
      <trkpt lat="43.98466" lon="1.94727">
        <ele>279</ele>
        <time>2017-11-22T13:05:22+01:00</time>
      </trkpt>
      <trkpt lat="43.98506" lon="1.94755">
        <ele>279</ele>
        <time>2017-11-22T13:05:54+01:00</time>
      </trkpt>
      <trkpt lat="43.98551" lon="1.9477">
        <ele>279</ele>
        <time>2017-11-22T13:06:29+01:00</time>
      </trkpt>
      <trkpt lat="43.98596" lon="1.9476">
        <ele>279</ele>
        <time>2017-11-22T13:07:00+01:00</time>
      </trkpt>
      <trkpt lat="43.98628" lon="1.94805">
        <ele>279</ele>
        <time>2017-11-22T13:07:41+01:00</time>
      </trkpt>
      <trkpt lat="43.98631" lon="1.94869">
        <ele>279</ele>
        <time>2017-11-22T13:08:13+01:00</time>
      </trkpt>
      <trkpt lat="43.98677" lon="1.94879">
        <ele>279</ele>
        <time>2017-11-22T13:08:48+01:00</time>
      </trkpt>
      <trkpt lat="43.9872" lon="1.94897">
        <ele>279</ele>
        <time>2017-11-22T13:09:21+01:00</time>
      </trkpt>
      <trkpt lat="43.98758" lon="1.94932">
        <ele>278</ele>
        <time>2017-11-22T13:09:52+01:00</time>
      </trkpt>
      <trkpt lat="43.98798" lon="1.94964">
        <ele>278</ele>
        <time>2017-11-22T13:10:28+01:00</time>
      </trkpt>
      <trkpt lat="43.98838" lon="1.94996">
        <ele>278</ele>
        <time>2017-11-22T13:11:00+01:00</time>
      </trkpt>
      <trkpt lat="43.98883" lon="1.95006">
        <ele>277</ele>
        <time>2017-11-22T13:12:56+01:00</time>
      </trkpt>
      <trkpt lat="43.98928" lon="1.95013">
        <ele>275</ele>
        <time>2017-11-22T13:13:26+01:00</time>
      </trkpt>
      <trkpt lat="43.98973" lon="1.95016">
        <ele>275</ele>
        <time>2017-11-22T13:13:55+01:00</time>
      </trkpt>
      <trkpt lat="43.99019" lon="1.95022">
        <ele>274</ele>
        <time>2017-11-22T13:14:27+01:00</time>
      </trkpt>
      <trkpt lat="43.99064" lon="1.95029">
        <ele>273</ele>
        <time>2017-11-22T13:14:57+01:00</time>
      </trkpt>
      <trkpt lat="43.99109" lon="1.9503">
        <ele>272</ele>
        <time>2017-11-22T13:15:29+01:00</time>
      </trkpt>
      <trkpt lat="43.99154" lon="1.95021">
        <ele>271</ele>
        <time>2017-11-22T13:16:01+01:00</time>
      </trkpt>
      <trkpt lat="43.99197" lon="1.94996">
        <ele>269</ele>
        <time>2017-11-22T13:16:31+01:00</time>
      </trkpt>
      <trkpt lat="43.99241" lon="1.94978">
        <ele>268</ele>
        <time>2017-11-22T13:17:04+01:00</time>
      </trkpt>
      <trkpt lat="43.9928" lon="1.94947">
        <ele>267</ele>
        <time>2017-11-22T13:17:39+01:00</time>
      </trkpt>
      <trkpt lat="43.99317" lon="1.9491">
        <ele>267</ele>
        <time>2017-11-22T13:18:13+01:00</time>
      </trkpt>
      <trkpt lat="43.99353" lon="1.94871">
        <ele>267</ele>
        <time>2017-11-22T13:18:46+01:00</time>
      </trkpt>
      <trkpt lat="43.99393" lon="1.94843">
        <ele>267</ele>
        <time>2017-11-22T13:19:28+01:00</time>
      </trkpt>
      <trkpt lat="43.99431" lon="1.94867">
        <ele>282</ele>
        <time>2017-11-22T13:58:59+01:00</time>
      </trkpt>
      <trkpt lat="43.99452" lon="1.94812">
        <ele>272</ele>
        <time>2017-11-22T14:01:17+01:00</time>
      </trkpt>
      <trkpt lat="43.99491" lon="1.94779">
        <ele>270</ele>
        <time>2017-11-22T14:02:01+01:00</time>
      </trkpt>
      <trkpt lat="43.9953" lon="1.94748">
        <ele>271</ele>
        <time>2017-11-22T14:02:40+01:00</time>
      </trkpt>
      <trkpt lat="43.99562" lon="1.94703">
        <ele>272</ele>
        <time>2017-11-22T14:03:23+01:00</time>
      </trkpt>
      <trkpt lat="43.99592" lon="1.94752">
        <ele>275</ele>
        <time>2017-11-22T14:04:32+01:00</time>
      </trkpt>
      <trkpt lat="43.9959" lon="1.94814">
        <ele>277</ele>
        <time>2017-11-22T14:05:08+01:00</time>
      </trkpt>
      <trkpt lat="43.99593" lon="1.94877">
        <ele>279</ele>
        <time>2017-11-22T14:05:52+01:00</time>
      </trkpt>
      <trkpt lat="43.99616" lon="1.94933">
        <ele>280</ele>
        <time>2017-11-22T14:06:37+01:00</time>
      </trkpt>
      <trkpt lat="43.9965" lon="1.94975">
        <ele>280</ele>
        <time>2017-11-22T14:07:11+01:00</time>
      </trkpt>
      <trkpt lat="43.99682" lon="1.95019">
        <ele>281</ele>
        <time>2017-11-22T14:07:58+01:00</time>
      </trkpt>
      <trkpt lat="43.99721" lon="1.95056">
        <ele>282</ele>
        <time>2017-11-22T14:08:35+01:00</time>
      </trkpt>
      <trkpt lat="43.99746" lon="1.95109">
        <ele>283</ele>
        <time>2017-11-22T14:09:14+01:00</time>
      </trkpt>
      <trkpt lat="43.99778" lon="1.95153">
        <ele>283</ele>
        <time>2017-11-22T14:09:52+01:00</time>
      </trkpt>
      <trkpt lat="43.99813" lon="1.95193">
        <ele>284</ele>
        <time>2017-11-22T14:10:29+01:00</time>
      </trkpt>
      <trkpt lat="43.99848" lon="1.95233">
        <ele>285</ele>
        <time>2017-11-22T14:11:07+01:00</time>
      </trkpt>
      <trkpt lat="43.99881" lon="1.95275">
        <ele>285</ele>
        <time>2017-11-22T14:11:52+01:00</time>
      </trkpt>
      <trkpt lat="43.99916" lon="1.95316">
        <ele>286</ele>
        <time>2017-11-22T14:12:36+01:00</time>
      </trkpt>
      <trkpt lat="43.99955" lon="1.95351">
        <ele>286</ele>
        <time>2017-11-22T14:13:15+01:00</time>
      </trkpt>
      <trkpt lat="43.9999" lon="1.95391">
        <ele>287</ele>
        <time>2017-11-22T14:13:56+01:00</time>
      </trkpt>
      <trkpt lat="44.00031" lon="1.95418">
        <ele>288</ele>
        <time>2017-11-22T14:14:36+01:00</time>
      </trkpt>
      <trkpt lat="44.00052" lon="1.95474">
        <ele>288</ele>
        <time>2017-11-22T14:15:46+01:00</time>
      </trkpt>
      <trkpt lat="44.00074" lon="1.95529">
        <ele>289</ele>
        <time>2017-11-22T14:16:28+01:00</time>
      </trkpt>
      <trkpt lat="44.00099" lon="1.9558">
        <ele>289</ele>
        <time>2017-11-22T14:17:10+01:00</time>
      </trkpt>
      <trkpt lat="44.00113" lon="1.9564">
        <ele>289</ele>
        <time>2017-11-22T14:18:00+01:00</time>
      </trkpt>
      <trkpt lat="44.00137" lon="1.95694">
        <ele>290</ele>
        <time>2017-11-22T14:18:39+01:00</time>
      </trkpt>
      <trkpt lat="44.00142" lon="1.95756">
        <ele>290</ele>
        <time>2017-11-22T14:19:27+01:00</time>
      </trkpt>
      <trkpt lat="44.00151" lon="1.95817">
        <ele>290</ele>
        <time>2017-11-22T14:20:04+01:00</time>
      </trkpt>
      <trkpt lat="44.00175" lon="1.95871">
        <ele>289</ele>
        <time>2017-11-22T14:21:15+01:00</time>
      </trkpt>
      <trkpt lat="44.00155" lon="1.95927">
        <ele>288</ele>
        <time>2017-11-22T14:22:12+01:00</time>
      </trkpt>
      <trkpt lat="44.00157" lon="1.9599">
        <ele>288</ele>
        <time>2017-11-22T14:23:12+01:00</time>
      </trkpt>
      <trkpt lat="44.00178" lon="1.96046">
        <ele>288</ele>
        <time>2017-11-22T14:23:53+01:00</time>
      </trkpt>
      <trkpt lat="44.00193" lon="1.96105">
        <ele>290</ele>
        <time>2017-11-22T14:25:36+01:00</time>
      </trkpt>
      <trkpt lat="44.00156" lon="1.96141">
        <ele>291</ele>
        <time>2017-11-22T14:26:25+01:00</time>
      </trkpt>
      <trkpt lat="44.0014" lon="1.96199">
        <ele>291</ele>
        <time>2017-11-22T14:27:04+01:00</time>
      </trkpt>
      <trkpt lat="44.00168" lon="1.9625">
        <ele>292</ele>
        <time>2017-11-22T14:27:45+01:00</time>
      </trkpt>
      <trkpt lat="44.00211" lon="1.96267">
        <ele>292</ele>
        <time>2017-11-22T14:28:28+01:00</time>
      </trkpt>
      <trkpt lat="44.00257" lon="1.96275">
        <ele>292</ele>
        <time>2017-11-22T14:29:15+01:00</time>
      </trkpt>
      <trkpt lat="44.00275" lon="1.96332">
        <ele>293</ele>
        <time>2017-11-22T14:30:03+01:00</time>
      </trkpt>
      <trkpt lat="44.00295" lon="1.96389">
        <ele>293</ele>
        <time>2017-11-22T14:30:47+01:00</time>
      </trkpt>
      <trkpt lat="44.00322" lon="1.96439">
        <ele>294</ele>
        <time>2017-11-22T14:31:27+01:00</time>
      </trkpt>
      <trkpt lat="44.00338" lon="1.96498">
        <ele>294</ele>
        <time>2017-11-22T14:32:12+01:00</time>
      </trkpt>
      <trkpt lat="44.00348" lon="1.9656">
        <ele>295</ele>
        <time>2017-11-22T14:32:58+01:00</time>
      </trkpt>
      <trkpt lat="44.00366" lon="1.96618">
        <ele>296</ele>
        <time>2017-11-22T14:33:41+01:00</time>
      </trkpt>
      <trkpt lat="44.00382" lon="1.96677">
        <ele>296</ele>
        <time>2017-11-22T14:34:23+01:00</time>
      </trkpt>
      <trkpt lat="44.00417" lon="1.96717">
        <ele>298</ele>
        <time>2017-11-22T14:36:33+01:00</time>
      </trkpt>
      <trkpt lat="44.00442" lon="1.96769">
        <ele>301</ele>
        <time>2017-11-22T14:37:58+01:00</time>
      </trkpt>
      <trkpt lat="44.0047" lon="1.96819">
        <ele>302</ele>
        <time>2017-11-22T14:38:45+01:00</time>
      </trkpt>
      <trkpt lat="44.00499" lon="1.96868">
        <ele>302</ele>
        <time>2017-11-22T14:39:33+01:00</time>
      </trkpt>
      <trkpt lat="44.00531" lon="1.96914">
        <ele>302</ele>
        <time>2017-11-22T14:40:15+01:00</time>
      </trkpt>
      <trkpt lat="44.0056" lon="1.96962">
        <ele>302</ele>
        <time>2017-11-22T14:40:55+01:00</time>
      </trkpt>
      <trkpt lat="44.00553" lon="1.97024">
        <ele>302</ele>
        <time>2017-11-22T14:41:34+01:00</time>
      </trkpt>
      <trkpt lat="44.00531" lon="1.97079">
        <ele>301</ele>
        <time>2017-11-22T14:42:13+01:00</time>
      </trkpt>
      <trkpt lat="44.00522" lon="1.97141">
        <ele>301</ele>
        <time>2017-11-22T14:42:50+01:00</time>
      </trkpt>
      <trkpt lat="44.00513" lon="1.97203">
        <ele>301</ele>
        <time>2017-11-22T14:43:32+01:00</time>
      </trkpt>
      <trkpt lat="44.00516" lon="1.97266">
        <ele>301</ele>
        <time>2017-11-22T14:44:10+01:00</time>
      </trkpt>
      <trkpt lat="44.00522" lon="1.97329">
        <ele>300</ele>
        <time>2017-11-22T14:44:50+01:00</time>
      </trkpt>
      <trkpt lat="44.00527" lon="1.97392">
        <ele>300</ele>
        <time>2017-11-22T14:45:29+01:00</time>
      </trkpt>
      <trkpt lat="44.00522" lon="1.97454">
        <ele>300</ele>
        <time>2017-11-22T14:46:08+01:00</time>
      </trkpt>
      <trkpt lat="44.00514" lon="1.97516">
        <ele>300</ele>
        <time>2017-11-22T14:46:47+01:00</time>
      </trkpt>
      <trkpt lat="44.00519" lon="1.97579">
        <ele>300</ele>
        <time>2017-11-22T14:47:27+01:00</time>
      </trkpt>
      <trkpt lat="44.00517" lon="1.97642">
        <ele>300</ele>
        <time>2017-11-22T14:48:04+01:00</time>
      </trkpt>
      <trkpt lat="44.00516" lon="1.97705">
        <ele>300</ele>
        <time>2017-11-22T14:48:39+01:00</time>
      </trkpt>
      <trkpt lat="44.00519" lon="1.97768">
        <ele>300</ele>
        <time>2017-11-22T14:49:15+01:00</time>
      </trkpt>
      <trkpt lat="44.00527" lon="1.9783">
        <ele>300</ele>
        <time>2017-11-22T14:50:17+01:00</time>
      </trkpt>
      <trkpt lat="44.0053" lon="1.97894">
        <ele>300</ele>
        <time>2017-11-22T14:51:18+01:00</time>
      </trkpt>
      <trkpt lat="44.00544" lon="1.97954">
        <ele>299</ele>
        <time>2017-11-22T14:51:54+01:00</time>
      </trkpt>
      <trkpt lat="44.00555" lon="1.98015">
        <ele>299</ele>
        <time>2017-11-22T14:52:33+01:00</time>
      </trkpt>
      <trkpt lat="44.00577" lon="1.98071">
        <ele>299</ele>
        <time>2017-11-22T14:53:25+01:00</time>
      </trkpt>
      <trkpt lat="44.00621" lon="1.98089">
        <ele>298</ele>
        <time>2017-11-22T14:53:56+01:00</time>
      </trkpt>
      <trkpt lat="44.00666" lon="1.98098">
        <ele>298</ele>
        <time>2017-11-22T14:54:24+01:00</time>
      </trkpt>
      <trkpt lat="44.0071" lon="1.98084">
        <ele>298</ele>
        <time>2017-11-22T14:55:06+01:00</time>
      </trkpt>
      <trkpt lat="44.00756" lon="1.98091">
        <ele>297</ele>
        <time>2017-11-22T14:55:45+01:00</time>
      </trkpt>
      <trkpt lat="44.00784" lon="1.98142">
        <ele>297</ele>
        <time>2017-11-22T14:56:23+01:00</time>
      </trkpt>
      <trkpt lat="44.0078" lon="1.98204">
        <ele>296</ele>
        <time>2017-11-22T14:57:05+01:00</time>
      </trkpt>
      <trkpt lat="44.0079" lon="1.98266">
        <ele>295</ele>
        <time>2017-11-22T14:57:45+01:00</time>
      </trkpt>
      <trkpt lat="44.00828" lon="1.98301">
        <ele>294</ele>
        <time>2017-11-22T14:58:30+01:00</time>
      </trkpt>
      <trkpt lat="44.00865" lon="1.98338">
        <ele>294</ele>
        <time>2017-11-22T14:59:14+01:00</time>
      </trkpt>
      <trkpt lat="44.00897" lon="1.98382">
        <ele>294</ele>
        <time>2017-11-22T14:59:57+01:00</time>
      </trkpt>
      <trkpt lat="44.00942" lon="1.98371">
        <ele>293</ele>
        <time>2017-11-22T15:00:33+01:00</time>
      </trkpt>
      <trkpt lat="44.00964" lon="1.98426">
        <ele>294</ele>
        <time>2017-11-22T15:04:03+01:00</time>
      </trkpt>
      <trkpt lat="44.00965" lon="1.98491">
        <ele>295</ele>
        <time>2017-11-22T15:04:44+01:00</time>
      </trkpt>
      <trkpt lat="44.00976" lon="1.98552">
        <ele>295</ele>
        <time>2017-11-22T15:05:24+01:00</time>
      </trkpt>
      <trkpt lat="44.00974" lon="1.98616">
        <ele>295</ele>
        <time>2017-11-22T15:06:00+01:00</time>
      </trkpt>
      <trkpt lat="44.00967" lon="1.98679">
        <ele>295</ele>
        <time>2017-11-22T15:06:34+01:00</time>
      </trkpt>
      <trkpt lat="44.00938" lon="1.98729">
        <ele>294</ele>
        <time>2017-11-22T15:07:15+01:00</time>
      </trkpt>
      <trkpt lat="44.00898" lon="1.9876">
        <ele>294</ele>
        <time>2017-11-22T15:07:54+01:00</time>
      </trkpt>
      <trkpt lat="44.00855" lon="1.98784">
        <ele>293</ele>
        <time>2017-11-22T15:08:30+01:00</time>
      </trkpt>
      <trkpt lat="44.00812" lon="1.98807">
        <ele>293</ele>
        <time>2017-11-22T15:09:04+01:00</time>
      </trkpt>
      <trkpt lat="44.00767" lon="1.98818">
        <ele>293</ele>
        <time>2017-11-22T15:09:42+01:00</time>
      </trkpt>
      <trkpt lat="44.00723" lon="1.98832">
        <ele>292</ele>
        <time>2017-11-22T15:10:19+01:00</time>
      </trkpt>
      <trkpt lat="44.00693" lon="1.9888">
        <ele>292</ele>
        <time>2017-11-22T15:11:02+01:00</time>
      </trkpt>
      <trkpt lat="44.00656" lon="1.9892">
        <ele>291</ele>
        <time>2017-11-22T15:11:46+01:00</time>
      </trkpt>
      <trkpt lat="44.00619" lon="1.98958">
        <ele>291</ele>
        <time>2017-11-22T15:12:20+01:00</time>
      </trkpt>
      <trkpt lat="44.00582" lon="1.98996">
        <ele>291</ele>
        <time>2017-11-22T15:12:56+01:00</time>
      </trkpt>
      <trkpt lat="44.00547" lon="1.99037">
        <ele>291</ele>
        <time>2017-11-22T15:13:31+01:00</time>
      </trkpt>
      <trkpt lat="44.00512" lon="1.99078">
        <ele>291</ele>
        <time>2017-11-22T15:14:07+01:00</time>
      </trkpt>
      <trkpt lat="44.00477" lon="1.99118">
        <ele>292</ele>
        <time>2017-11-22T15:14:48+01:00</time>
      </trkpt>
      <trkpt lat="44.00436" lon="1.99144">
        <ele>292</ele>
        <time>2017-11-22T15:15:28+01:00</time>
      </trkpt>
      <trkpt lat="44.00401" lon="1.99185">
        <ele>292</ele>
        <time>2017-11-22T15:16:05+01:00</time>
      </trkpt>
      <trkpt lat="44.00369" lon="1.99231">
        <ele>292</ele>
        <time>2017-11-22T15:16:43+01:00</time>
      </trkpt>
      <trkpt lat="44.00338" lon="1.99276">
        <ele>293</ele>
        <time>2017-11-22T15:17:22+01:00</time>
      </trkpt>
      <trkpt lat="44.0031" lon="1.99327">
        <ele>293</ele>
        <time>2017-11-22T15:18:00+01:00</time>
      </trkpt>
      <trkpt lat="44.00279" lon="1.99374">
        <ele>294</ele>
        <time>2017-11-22T15:18:32+01:00</time>
      </trkpt>
      <trkpt lat="44.00277" lon="1.99437">
        <ele>295</ele>
        <time>2017-11-22T15:19:21+01:00</time>
      </trkpt>
      <trkpt lat="44.00264" lon="1.99498">
        <ele>296</ele>
        <time>2017-11-22T15:20:07+01:00</time>
      </trkpt>
      <trkpt lat="44.00243" lon="1.99554">
        <ele>296</ele>
        <time>2017-11-22T15:20:45+01:00</time>
      </trkpt>
      <trkpt lat="44.0022" lon="1.99608">
        <ele>298</ele>
        <time>2017-11-22T15:21:24+01:00</time>
      </trkpt>
      <trkpt lat="44.00196" lon="1.99662">
        <ele>301</ele>
        <time>2017-11-22T15:22:01+01:00</time>
      </trkpt>
      <trkpt lat="44.00172" lon="1.99716">
        <ele>304</ele>
        <time>2017-11-22T15:22:37+01:00</time>
      </trkpt>
      <trkpt lat="44.00152" lon="1.99772">
        <ele>311</ele>
        <time>2017-11-22T15:28:32+01:00</time>
      </trkpt>
      <trkpt lat="44.00124" lon="1.99822">
        <ele>311</ele>
        <time>2017-11-22T15:29:14+01:00</time>
      </trkpt>
      <trkpt lat="44.00102" lon="1.99876">
        <ele>312</ele>
        <time>2017-11-22T15:29:54+01:00</time>
      </trkpt>
      <trkpt lat="44.00074" lon="1.99925">
        <ele>313</ele>
        <time>2017-11-22T15:30:33+01:00</time>
      </trkpt>
      <trkpt lat="44.00045" lon="1.99975">
        <ele>314</ele>
        <time>2017-11-22T15:31:06+01:00</time>
      </trkpt>
      <trkpt lat="44.00008" lon="2.0001">
        <ele>315</ele>
        <time>2017-11-22T15:31:49+01:00</time>
      </trkpt>
      <trkpt lat="43.99972" lon="2.00051">
        <ele>316</ele>
        <time>2017-11-22T15:32:28+01:00</time>
      </trkpt>
      <trkpt lat="43.99941" lon="2.00098">
        <ele>316</ele>
        <time>2017-11-22T15:33:03+01:00</time>
      </trkpt>
      <trkpt lat="43.99911" lon="2.00145">
        <ele>317</ele>
        <time>2017-11-22T15:33:44+01:00</time>
      </trkpt>
      <trkpt lat="43.9988" lon="2.00191">
        <ele>318</ele>
        <time>2017-11-22T15:34:24+01:00</time>
      </trkpt>
      <trkpt lat="43.99853" lon="2.00242">
        <ele>319</ele>
        <time>2017-11-22T15:35:08+01:00</time>
      </trkpt>
      <trkpt lat="43.99821" lon="2.00286">
        <ele>320</ele>
        <time>2017-11-22T15:35:53+01:00</time>
      </trkpt>
      <trkpt lat="43.99781" lon="2.00315">
        <ele>321</ele>
        <time>2017-11-22T15:36:44+01:00</time>
      </trkpt>
      <trkpt lat="43.99741" lon="2.00348">
        <ele>323</ele>
        <time>2017-11-22T15:37:32+01:00</time>
      </trkpt>
      <trkpt lat="43.99705" lon="2.00386">
        <ele>324</ele>
        <time>2017-11-22T15:38:19+01:00</time>
      </trkpt>
      <trkpt lat="43.9966" lon="2.00385">
        <ele>325</ele>
        <time>2017-11-22T15:39:15+01:00</time>
      </trkpt>
      <trkpt lat="43.99627" lon="2.00342">
        <ele>326</ele>
        <time>2017-11-22T15:40:00+01:00</time>
      </trkpt>
      <trkpt lat="43.99597" lon="2.00294">
        <ele>327</ele>
        <time>2017-11-22T15:40:42+01:00</time>
      </trkpt>
      <trkpt lat="43.9956" lon="2.00258">
        <ele>327</ele>
        <time>2017-11-22T15:41:31+01:00</time>
      </trkpt>
      <trkpt lat="43.99528" lon="2.00302">
        <ele>328</ele>
        <time>2017-11-22T15:42:13+01:00</time>
      </trkpt>
      <trkpt lat="43.99497" lon="2.00349">
        <ele>328</ele>
        <time>2017-11-22T15:42:43+01:00</time>
      </trkpt>
      <trkpt lat="43.99465" lon="2.00394">
        <ele>328</ele>
        <time>2017-11-22T15:43:23+01:00</time>
      </trkpt>
      <trkpt lat="43.99431" lon="2.00436">
        <ele>329</ele>
        <time>2017-11-22T15:44:00+01:00</time>
      </trkpt>
      <trkpt lat="43.99397" lon="2.00476">
        <ele>329</ele>
        <time>2017-11-22T15:44:37+01:00</time>
      </trkpt>
      <trkpt lat="43.99357" lon="2.00446">
        <ele>329</ele>
        <time>2017-11-22T15:47:31+01:00</time>
      </trkpt>
      <trkpt lat="43.9933" lon="2.00395">
        <ele>329</ele>
        <time>2017-11-22T15:48:18+01:00</time>
      </trkpt>
      <trkpt lat="43.99315" lon="2.00335">
        <ele>329</ele>
        <time>2017-11-22T15:48:51+01:00</time>
      </trkpt>
      <trkpt lat="43.99302" lon="2.00273">
        <ele>328</ele>
        <time>2017-11-22T15:49:29+01:00</time>
      </trkpt>
      <trkpt lat="43.99292" lon="2.00212">
        <ele>328</ele>
        <time>2017-11-22T15:50:08+01:00</time>
      </trkpt>
      <trkpt lat="43.99278" lon="2.00151">
        <ele>327</ele>
        <time>2017-11-22T15:51:04+01:00</time>
      </trkpt>
      <trkpt lat="43.99246" lon="2.00106">
        <ele>326</ele>
        <time>2017-11-22T15:51:49+01:00</time>
      </trkpt>
      <trkpt lat="43.99214" lon="2.00062">
        <ele>325</ele>
        <time>2017-11-22T15:52:40+01:00</time>
      </trkpt>
      <trkpt lat="43.99186" lon="2.0001">
        <ele>324</ele>
        <time>2017-11-22T15:53:37+01:00</time>
      </trkpt>
      <trkpt lat="43.99161" lon="1.99957">
        <ele>323</ele>
        <time>2017-11-22T15:54:18+01:00</time>
      </trkpt>
      <trkpt lat="43.99151" lon="1.99894">
        <ele>323</ele>
        <time>2017-11-22T15:55:00+01:00</time>
      </trkpt>
      <trkpt lat="43.99126" lon="1.9984">
        <ele>323</ele>
        <time>2017-11-22T15:55:42+01:00</time>
      </trkpt>
      <trkpt lat="43.99081" lon="1.99828">
        <ele>322</ele>
        <time>2017-11-22T15:56:24+01:00</time>
      </trkpt>
      <trkpt lat="43.99047" lon="1.99786">
        <ele>321</ele>
        <time>2017-11-22T15:57:17+01:00</time>
      </trkpt>
      <trkpt lat="43.99029" lon="1.99728">
        <ele>320</ele>
        <time>2017-11-22T15:58:36+01:00</time>
      </trkpt>
      <trkpt lat="43.98986" lon="1.99705">
        <ele>319</ele>
        <time>2017-11-22T15:59:19+01:00</time>
      </trkpt>
      <trkpt lat="43.98952" lon="1.99664">
        <ele>318</ele>
        <time>2017-11-22T15:59:54+01:00</time>
      </trkpt>
      <trkpt lat="43.98912" lon="1.99636">
        <ele>318</ele>
        <time>2017-11-22T16:00:36+01:00</time>
      </trkpt>
      <trkpt lat="43.98874" lon="1.99597">
        <ele>318</ele>
        <time>2017-11-22T16:01:19+01:00</time>
      </trkpt>
      <trkpt lat="43.9886" lon="1.99537">
        <ele>318</ele>
        <time>2017-11-22T16:02:00+01:00</time>
      </trkpt>
      <trkpt lat="43.9882" lon="1.99505">
        <ele>317</ele>
        <time>2017-11-22T16:02:58+01:00</time>
      </trkpt>
      <trkpt lat="43.98775" lon="1.99509">
        <ele>317</ele>
        <time>2017-11-22T16:03:38+01:00</time>
      </trkpt>
      <trkpt lat="43.9873" lon="1.99518">
        <ele>317</ele>
        <time>2017-11-22T16:04:19+01:00</time>
      </trkpt>
      <trkpt lat="43.98687" lon="1.9954">
        <ele>317</ele>
        <time>2017-11-22T16:04:55+01:00</time>
      </trkpt>
      <trkpt lat="43.98645" lon="1.99567">
        <ele>317</ele>
        <time>2017-11-22T16:05:31+01:00</time>
      </trkpt>
      <trkpt lat="43.986" lon="1.99582">
        <ele>318</ele>
        <time>2017-11-22T16:06:12+01:00</time>
      </trkpt>
      <trkpt lat="43.98556" lon="1.99564">
        <ele>318</ele>
        <time>2017-11-22T16:06:50+01:00</time>
      </trkpt>
      <trkpt lat="43.98513" lon="1.99542">
        <ele>319</ele>
        <time>2017-11-22T16:07:29+01:00</time>
      </trkpt>
      <trkpt lat="43.98473" lon="1.99515">
        <ele>319</ele>
        <time>2017-11-22T16:08:06+01:00</time>
      </trkpt>
      <trkpt lat="43.98428" lon="1.995">
        <ele>319</ele>
        <time>2017-11-22T16:08:45+01:00</time>
      </trkpt>
      <trkpt lat="43.98406" lon="1.99446">
        <ele>320</ele>
        <time>2017-11-22T16:10:40+01:00</time>
      </trkpt>
      <trkpt lat="43.98411" lon="1.99383">
        <ele>320</ele>
        <time>2017-11-22T16:11:15+01:00</time>
      </trkpt>
      <trkpt lat="43.9842" lon="1.99321">
        <ele>320</ele>
        <time>2017-11-22T16:11:49+01:00</time>
      </trkpt>
      <trkpt lat="43.98433" lon="1.99261">
        <ele>320</ele>
        <time>2017-11-22T16:12:24+01:00</time>
      </trkpt>
      <trkpt lat="43.98443" lon="1.99199">
        <ele>320</ele>
        <time>2017-11-22T16:12:59+01:00</time>
      </trkpt>
      <trkpt lat="43.98444" lon="1.99137">
        <ele>319</ele>
        <time>2017-11-22T16:13:33+01:00</time>
      </trkpt>
      <trkpt lat="43.9844" lon="1.99075">
        <ele>319</ele>
        <time>2017-11-22T16:14:06+01:00</time>
      </trkpt>
      <trkpt lat="43.98435" lon="1.99012">
        <ele>319</ele>
        <time>2017-11-22T16:14:39+01:00</time>
      </trkpt>
      <trkpt lat="43.98422" lon="1.98952">
        <ele>319</ele>
        <time>2017-11-22T16:15:17+01:00</time>
      </trkpt>
      <trkpt lat="43.9841" lon="1.98889">
        <ele>318</ele>
        <time>2017-11-22T16:15:51+01:00</time>
      </trkpt>
      <trkpt lat="43.98394" lon="1.98831">
        <ele>318</ele>
        <time>2017-11-22T16:16:30+01:00</time>
      </trkpt>
      <trkpt lat="43.98356" lon="1.98794">
        <ele>316</ele>
        <time>2017-11-22T16:18:35+01:00</time>
      </trkpt>
      <trkpt lat="43.98322" lon="1.98753">
        <ele>315</ele>
        <time>2017-11-22T16:19:13+01:00</time>
      </trkpt>
      <trkpt lat="43.9829" lon="1.98707">
        <ele>315</ele>
        <time>2017-11-22T16:19:50+01:00</time>
      </trkpt>
      <trkpt lat="43.98254" lon="1.98666">
        <ele>314</ele>
        <time>2017-11-22T16:20:27+01:00</time>
      </trkpt>
      <trkpt lat="43.98219" lon="1.98628">
        <ele>314</ele>
        <time>2017-11-22T16:21:04+01:00</time>
      </trkpt>
      <trkpt lat="43.98181" lon="1.98592">
        <ele>313</ele>
        <time>2017-11-22T16:21:40+01:00</time>
      </trkpt>
      <trkpt lat="43.98153" lon="1.98542">
        <ele>313</ele>
        <time>2017-11-22T16:22:22+01:00</time>
      </trkpt>
      <trkpt lat="43.98143" lon="1.98481">
        <ele>312</ele>
        <time>2017-11-22T16:23:23+01:00</time>
      </trkpt>
      <trkpt lat="43.98101" lon="1.9846">
        <ele>311</ele>
        <time>2017-11-22T16:24:02+01:00</time>
      </trkpt>
      <trkpt lat="43.98077" lon="1.98406">
        <ele>310</ele>
        <time>2017-11-22T16:25:17+01:00</time>
      </trkpt>
    </trkseg>
  </trk>
</gpx>